Time;durP1;ratioP1;P1;durP2;ratioP2;P2;SDS_P1;SDS_P2;PMS_P1;PMS_P2;Temp;Humidity;BMP_temperature;BMP_pressure;BME280_temperature;BME280_humidity;BME280_pressure;Samples;Min_cycle;Max_cycle;Signal;HPM_P1;HPM_P2
2022/07/20 00:03:30;;;;;;;2.40;1.48;;;;;;;23.55;33.24;100224.22;7726016;32;38113;-72
2022/07/20 00:07:46;;;;;;;2.60;1.50;;;;;;;23.67;33.07;100217.03;7736215;32;37026;-74
2022/07/20 00:12:02;;;;;;;3.70;1.50;;;;;;;23.70;33.10;100217.13;7734646;32;40033;-73
2022/07/20 00:16:23;;;;;;;1.92;1.35;;;;;;;23.74;32.84;100217.25;7735912;32;41271;-74
2022/07/20 00:20:39;;;;;;;1.73;1.50;;;;;;;23.59;33.05;100205.66;7735906;32;37871;-74
2022/07/20 00:24:55;;;;;;;1.92;1.55;;;;;;;23.51;33.12;100203.81;7710126;32;37795;-74
2022/07/20 00:29:11;;;;;;;2.83;1.40;;;;;;;23.37;33.21;100212.53;7711662;32;39372;-73
2022/07/20 00:33:28;;;;;;;2.95;1.50;;;;;;;23.12;34.12;100214.47;7734819;32;38842;-74
2022/07/20 00:37:44;;;;;;;2.25;1.35;;;;;;;23.09;34.45;100220.72;7739229;32;38004;-73
2022/07/20 00:42:00;;;;;;;4.50;1.40;;;;;;;23.03;34.18;100219.31;7722144;32;37936;-73
2022/07/20 00:46:17;;;;;;;2.47;1.42;;;;;;;23.03;34.05;100216.53;7712689;32;40078;-73
2022/07/20 00:50:33;;;;;;;4.35;1.60;;;;;;;23.00;34.01;100212.47;7713911;32;40608;-74
2022/07/20 00:54:49;;;;;;;5.18;1.62;;;;;;;22.99;33.74;100208.06;7712383;32;37889;-74
2022/07/20 00:59:08;;;;;;;3.00;1.40;;;;;;;22.99;34.22;100210.03;7712502;32;37855;-72
2022/07/20 01:03:24;;;;;;;6.10;1.58;;;;;;;23.00;34.49;100217.22;7729622;32;38272;-74
2022/07/20 01:07:43;;;;;;;3.95;1.40;;;;;;;22.78;34.96;100221.22;7739139;32;41265;-74
2022/07/20 01:11:59;;;;;;;3.62;1.25;;;;;;;22.94;34.60;100218.59;7722466;32;36970;-74
2022/07/20 01:16:15;;;;;;;6.00;1.73;;;;;;;22.78;35.26;100213.69;7712324;32;36731;-74
2022/07/20 01:20:32;;;;;;;4.10;1.48;;;;;;;22.95;34.38;100209.91;7718661;32;40089;-74
2022/07/20 01:24:48;;;;;;;5.30;1.60;;;;;;;22.85;34.30;100225.06;7716623;32;40193;-74
2022/07/20 01:29:04;;;;;;;6.62;1.70;;;;;;;22.60;35.21;100218.62;7711983;32;38813;-73
2022/07/20 01:33:21;;;;;;;4.10;1.40;;;;;;;22.53;35.19;100221.16;7734916;32;37124;-74
2022/07/20 01:37:37;;;;;;;5.22;1.48;;;;;;;22.54;35.00;100222.75;7738687;32;39053;-74
2022/07/20 01:41:53;;;;;;;5.12;1.48;;;;;;;22.53;34.94;100218.38;7722969;32;39951;-74
2022/07/20 01:46:09;;;;;;;2.87;1.40;;;;;;;22.66;34.45;100230.34;7711822;32;38470;-74
2022/07/20 01:50:25;;;;;;;2.37;1.40;;;;;;;22.65;35.45;100223.16;7717313;32;37215;-74
2022/07/20 01:54:41;;;;;;;3.55;1.40;;;;;;;22.34;35.85;100221.66;7738585;32;39333;-73
2022/07/20 01:58:57;;;;;;;3.20;1.40;;;;;;;22.30;35.80;100217.94;7731026;32;40013;-74
2022/07/20 02:03:13;;;;;;;3.20;1.30;;;;;;;22.30;35.65;100217.94;7711530;32;38879;-72
2022/07/20 02:07:29;;;;;;;2.85;1.62;;;;;;;22.11;36.28;100224.78;7711683;32;38124;-73
2022/07/20 02:11:45;;;;;;;2.15;1.40;;;;;;;21.96;35.94;100216.25;7735773;32;39560;-72
2022/07/20 02:16:14;;;;;;;3.65;1.40;;;;;;;21.93;36.94;100218.53;7738412;32;39928;-73
2022/07/20 02:20:31;;;;;;;4.53;1.60;;;;;;;21.83;37.17;100220.91;7721690;32;37686;-74
2022/07/20 02:24:47;;;;;;;3.85;1.42;;;;;;;21.67;37.57;100218.72;7711538;32;36790;-73
2022/07/20 02:29:03;;;;;;;2.72;1.60;;;;;;;21.55;38.48;100224.97;7715146;32;39015;-74
2022/07/20 02:33:19;;;;;;;3.37;1.45;;;;;;;21.47;39.54;100222.25;7713700;32;40723;-74
2022/07/20 02:37:35;;;;;;;4.03;1.70;;;;;;;21.69;38.64;100216.41;7711033;32;37897;-74
2022/07/20 02:41:51;;;;;;;6.10;1.80;;;;;;;21.76;38.02;100216.69;7735913;32;37600;-74
2022/07/20 02:46:07;;;;;;;4.85;2.00;;;;;;;21.74;37.88;100220.97;7737913;32;39310;-74
2022/07/20 02:50:23;;;;;;;3.37;1.52;;;;;;;21.70;37.52;100229.16;7721311;32;40122;-74
2022/07/20 02:54:39;;;;;;;3.03;1.35;;;;;;;21.86;37.04;100214.69;7710947;32;37889;-73
2022/07/20 02:58:55;;;;;;;3.17;1.67;;;;;;;21.72;37.04;100215.75;7716300;32;37878;-74
2022/07/20 03:03:11;;;;;;;3.67;1.40;;;;;;;21.63;37.03;100236.34;7737727;32;40072;-73
2022/07/20 03:07:27;;;;;;;5.30;1.50;;;;;;;21.48;38.05;100232.22;7737651;32;39964;-74
2022/07/20 03:11:43;;;;;;;4.80;1.62;;;;;;;21.52;37.89;100245.06;7724072;32;38717;-75
2022/07/20 03:15:59;;;;;;;2.35;1.55;;;;;;;21.62;37.46;100245.84;7737532;32;37086;-74
2022/07/20 03:20:23;;;;;;;2.67;1.52;;;;;;;21.35;38.11;100257.06;7720468;32;39358;-74
2022/07/20 03:24:39;;;;;;;8.75;1.90;;;;;;;21.23;38.32;100254.19;7710597;32;39889;-74
2022/07/20 03:28:55;;;;;;;9.50;1.92;;;;;;;21.28;39.59;100261.47;7718011;32;38037;-74
2022/07/20 03:33:11;;;;;;;2.72;1.90;;;;;;;21.15;39.76;100258.59;7737107;32;38047;-74
2022/07/20 03:37:27;;;;;;;5.87;1.60;;;;;;;21.13;39.78;100271.16;7736948;32;39410;-74
2022/07/20 03:41:43;;;;;;;4.05;1.90;;;;;;;21.06;40.03;100276.38;7711137;32;40589;-74
2022/07/20 03:45:59;;;;;;;6.78;1.95;;;;;;;21.06;41.89;100279.16;7709950;32;38012;-75
2022/07/20 03:50:15;;;;;;;4.20;1.42;;;;;;;20.99;41.94;100282.47;7736714;32;37165;-74
2022/07/20 03:54:31;;;;;;;3.30;1.45;;;;;;;20.92;42.08;100280.19;7736581;32;40140;-74
2022/07/20 03:58:47;;;;;;;3.25;1.60;;;;;;;20.92;41.76;100285.72;7724618;32;40843;-73
2022/07/20 04:03:04;;;;;;;6.10;1.65;;;;;;;20.95;42.20;100278.69;7710970;32;38849;-73
2022/07/20 04:07:20;;;;;;;2.78;1.65;;;;;;;21.00;41.32;100287.66;7719086;32;37142;-74
2022/07/20 04:11:36;;;;;;;2.97;1.60;;;;;;;21.01;41.84;100283.75;7713394;32;39374;-74
2022/07/20 04:15:52;;;;;;;3.85;1.73;;;;;;;21.08;41.56;100290.75;7713230;32;40025;-73
2022/07/20 04:20:09;;;;;;;2.78;1.60;;;;;;;21.22;41.20;100285.00;7712985;32;37699;-73
2022/07/20 04:24:26;;;;;;;3.05;1.52;;;;;;;21.35;40.63;100284.78;7712938;32;37235;-72
2022/07/20 04:28:42;;;;;;;3.37;1.60;;;;;;;21.47;40.20;100280.50;7722110;32;40130;-73
2022/07/20 04:32:58;;;;;;;5.62;1.52;;;;;;;21.59;39.70;100283.38;7739433;32;39900;-74
2022/07/20 04:37:14;;;;;;;6.28;1.55;;;;;;;21.84;39.06;100278.03;7732302;32;38750;-73
2022/07/20 04:41:30;;;;;;;5.37;1.50;;;;;;;21.89;39.31;100281.44;7721293;32;37844;-74
2022/07/20 04:45:46;;;;;;;5.30;1.50;;;;;;;21.81;40.81;100278.72;7739444;32;40131;-73
2022/07/20 04:50:10;;;;;;;2.53;1.23;;;;;;;21.93;39.59;100282.38;7725258;32;40059;-72
2022/07/20 04:54:26;;;;;;;3.85;1.62;;;;;;;21.98;40.61;100289.69;7739069;32;37993;-74
2022/07/20 04:58:42;;;;;;;5.60;1.45;;;;;;;22.05;40.50;100287.19;7723407;32;37015;-74
2022/07/20 05:02:58;;;;;;;2.53;1.58;;;;;;;22.34;39.67;100287.53;7721580;32;39845;-73
2022/07/20 05:07:15;;;;;;;6.18;1.92;;;;;;;22.46;38.65;100287.56;7720860;32;39589;-72
2022/07/20 05:11:31;;;;;;;6.35;2.08;;;;;;;22.62;39.40;100296.09;7722552;32;38015;-75
2022/07/20 05:15:47;;;;;;;4.18;1.73;;;;;;;22.93;38.40;100289.25;7711453;32;37843;-72
2022/07/20 05:20:04;;;;;;;2.95;1.55;;;;;;;23.11;38.06;100296.28;7712174;32;39373;-72
2022/07/20 05:24:20;;;;;;;3.50;1.42;;;;;;;23.41;37.37;100298.88;7713792;32;40012;-74
2022/07/20 05:28:38;;;;;;;6.80;1.70;;;;;;;23.79;35.49;100298.53;7734353;32;38064;-73
2022/07/20 05:32:54;;;;;;;3.22;1.50;;;;;;;23.95;33.75;100301.44;7730156;32;311448;-74
2022/07/20 05:37:10;;;;;;;3.20;1.70;;;;;;;24.00;35.57;100298.41;7711635;32;40235;-75
2022/07/20 05:41:26;;;;;;;3.05;1.40;;;;;;;24.25;34.62;100295.59;7711881;32;40624;-74
2022/07/20 05:45:43;;;;;;;4.03;1.60;;;;;;;24.34;35.48;100292.66;7711534;32;37692;-72
2022/07/20 05:50:02;;;;;;;3.75;1.55;;;;;;;24.52;34.38;100293.19;7713607;32;37938;-73
2022/07/20 05:54:18;;;;;;;7.62;1.70;;;;;;;24.53;34.93;100290.03;7718453;32;39342;-73
2022/07/20 05:58:34;;;;;;;2.35;1.50;;;;;;;24.67;34.87;100289.66;7732344;32;40763;-74
2022/07/20 06:02:50;;;;;;;8.38;1.60;;;;;;;25.01;34.53;100290.19;7710996;32;37939;-71
2022/07/20 06:07:06;;;;;;;5.68;1.73;;;;;;;25.12;34.26;100282.91;7709428;32;37535;-71
2022/07/20 06:11:22;;;;;;;3.80;1.40;;;;;;;25.31;33.26;100281.41;7711476;32;40774;-71
2022/07/20 06:15:39;;;;;;;2.70;1.48;;;;;;;25.55;32.02;100285.19;7710529;32;40132;-73
2022/07/20 06:19:55;;;;;;;4.75;1.80;;;;;;;25.65;31.89;100279.06;7708938;32;38780;-75
2022/07/20 06:24:11;;;;;;;5.62;1.75;;;;;;;25.81;31.44;100287.41;7709613;32;36867;-73
2022/07/20 06:28:33;;;;;;;7.20;1.90;;;;;;;26.24;32.31;100285.63;7711096;32;39425;-73
2022/07/20 06:32:49;;;;;;;3.37;1.50;;;;;;;26.41;31.71;100282.38;7711094;32;39605;-72
2022/07/20 06:37:05;;;;;;;2.80;1.70;;;;;;;26.50;31.52;100287.75;7709728;32;38476;-73
2022/07/20 06:41:21;;;;;;;5.18;1.37;;;;;;;26.48;31.17;100295.69;7711061;32;36800;-74
2022/07/20 06:45:37;;;;;;;2.87;1.70;;;;;;;26.37;30.30;100280.69;7710986;32;39804;-77
2022/07/20 06:49:53;;;;;;;3.70;1.60;;;;;;;26.89;28.62;100276.56;7710968;32;40889;-73
2022/07/20 06:54:09;;;;;;;4.12;1.70;;;;;;;27.20;28.08;100265.50;7710796;32;38039;-77
2022/07/20 06:58:29;;;;;;;8.95;2.12;;;;;;;27.31;28.50;100269.34;7710984;32;37023;-75
2022/07/20 07:02:45;;;;;;;4.82;1.55;;;;;;;26.92;29.77;100273.03;7710708;32;40165;-73
2022/07/20 07:07:02;;;;;;;3.67;1.50;;;;;;;27.06;30.09;100266.06;7710880;32;40222;-72
2022/07/20 07:11:18;;;;;;;3.42;1.50;;;;;;;27.75;28.52;100268.00;7710893;32;38012;-71
2022/07/20 07:15:34;;;;;;;4.10;1.42;;;;;;;28.05;28.66;100268.09;7710558;32;37117;-72
2022/07/20 07:19:50;;;;;;;4.62;1.40;;;;;;;27.66;29.45;100277.47;7710551;32;39468;-72
2022/07/20 07:24:06;;;;;;;2.92;1.62;;;;;;;28.03;28.53;100264.88;7710232;32;40858;-72
2022/07/20 07:28:22;;;;;;;4.68;1.60;;;;;;;27.80;28.12;100262.09;7710367;32;38106;-71
2022/07/20 07:32:38;;;;;;;5.07;1.40;;;;;;;28.24;27.67;100264.34;7710246;32;37141;-71
2022/07/20 07:36:55;;;;;;;8.25;1.70;;;;;;;28.45;26.29;100261.78;7709251;32;39501;-72
2022/07/20 07:41:11;;;;;;;5.05;1.50;;;;;;;28.86;26.34;100247.03;7709920;32;39944;-71
2022/07/20 07:45:30;;;;;;;9.18;1.80;;;;;;;29.23;25.61;100251.81;7709712;32;38117;-73
2022/07/20 07:49:46;;;;;;;2.92;1.40;;;;;;;29.37;24.65;100248.31;7709759;32;37368;-71
2022/07/20 07:54:05;;;;;;;5.07;1.52;;;;;;;29.67;25.20;100250.16;7709693;32;38367;-72
2022/07/20 07:58:21;;;;;;;1.77;1.20;;;;;;;30.01;25.24;100247.97;7709516;32;40812;-72
2022/07/20 08:02:37;;;;;;;5.78;1.33;;;;;;;30.04;23.81;100244.37;7709539;32;38105;-73
2022/07/20 08:06:53;;;;;;;3.97;1.85;;;;;;;30.22;23.81;100247.28;7709087;32;38031;-70
2022/07/20 08:11:09;;;;;;;2.55;1.60;;;;;;;30.68;23.86;100237.41;7706320;32;39016;-71
2022/07/20 08:15:25;;;;;;;6.07;1.60;;;;;;;30.62;22.58;100242.62;7706882;32;40844;-71
2022/07/20 08:19:41;;;;;;;5.47;1.65;;;;;;;30.78;23.03;100228.16;7707442;32;37650;-72
2022/07/20 08:23:57;;;;;;;3.60;1.40;;;;;;;30.59;22.50;100237.78;7707122;32;37840;-73
2022/07/20 08:28:20;;;;;;;9.20;1.80;;;;;;;31.10;22.06;100229.44;7708989;32;39299;-72
2022/07/20 08:32:36;;;;;;;4.47;1.37;;;;;;;31.39;21.64;100233.87;7708937;32;39842;-73
2022/07/20 08:36:52;;;;;;;5.35;1.45;;;;;;;31.67;20.76;100226.63;7708801;32;37791;-73
2022/07/20 08:41:09;;;;;;;2.58;1.35;;;;;;;31.70;21.85;100231.44;7655813;32;36854;-71
2022/07/20 08:45:25;;;;;;;4.10;1.40;;;;;;;31.80;21.10;100221.34;7655456;32;39246;-72
2022/07/20 08:49:49;;;;;;;3.35;1.65;;;;;;;32.10;19.48;100220.88;7656811;32;40000;-72
2022/07/20 08:54:06;;;;;;;1.90;1.30;;;;;;;32.19;20.49;100217.63;7659427;32;38663;-71
2022/07/20 08:58:22;;;;;;;2.87;1.30;;;;;;;32.15;19.16;100216.81;7659311;32;37019;-72
2022/07/20 09:03:03;;;;;;;6.07;1.55;;;;;;;32.82;18.43;100214.06;7659390;32;39284;-72
2022/07/20 09:07:37;;;;;;;7.30;1.52;;;;;;;33.06;17.73;100206.59;7655336;32;40806;-71
2022/07/20 09:11:53;;;;;;;6.22;1.62;;;;;;;33.58;16.83;100209.41;7659116;32;38394;-72
2022/07/20 09:16:09;;;;;;;5.68;1.85;;;;;;;32.93;17.61;100207.13;7659117;32;37931;-73
2022/07/20 09:20:29;;;;;;;5.60;1.30;;;;;;;33.35;17.77;100200.75;7659145;32;40102;-72
2022/07/20 09:24:45;;;;;;;3.00;1.52;;;;;;;33.48;16.78;100202.63;7657951;32;39984;-72
2022/07/20 09:29:05;;;;;;;3.80;1.27;;;;;;;33.70;16.81;100188.28;7658891;32;38789;-73
2022/07/20 09:33:29;;;;;;;13.02;1.60;;;;;;;33.80;16.15;100193.00;7658827;32;36900;-74
2022/07/20 09:37:45;;;;;;;2.28;1.30;;;;;;;34.19;15.91;100185.28;7669216;32;39052;-74
2022/07/20 09:42:01;;;;;;;4.15;1.50;;;;;;;34.23;15.08;100200.19;7711842;32;40783;-73
2022/07/20 09:46:19;;;;;;;6.00;1.27;;;;;;;33.96;15.51;100191.62;7711754;32;38590;-72
2022/07/20 09:50:40;;;;;;;3.37;1.30;;;;;;;33.49;16.73;100183.63;7711866;32;38316;-72
2022/07/20 09:54:56;;;;;;;2.53;1.10;;;;;;;34.14;15.50;100182.91;7711568;32;39975;-72
2022/07/20 09:59:13;;;;;;;3.75;1.37;;;;;;;34.53;15.67;100184.41;7711273;32;39866;-71
2022/07/20 10:03:30;;;;;;;3.05;1.52;;;;;;;34.55;15.86;100190.47;7711368;32;38740;-72
2022/07/20 10:07:46;;;;;;;2.80;1.40;;;;;;;34.53;15.45;100181.56;7711493;32;37954;-72
2022/07/20 10:12:02;;;;;;;3.97;1.40;;;;;;;35.20;15.75;100167.56;7723155;32;42291;-71
2022/07/20 10:16:39;;;;;;;2.70;1.60;;;;;;;35.06;15.27;100170.66;7722596;32;40084;-72
2022/07/20 10:20:55;;;;;;;5.12;1.23;;;;;;;35.44;15.24;100167.56;7724259;32;37822;-71
2022/07/20 10:25:18;;;;;;;4.70;1.40;;;;;;;35.54;14.76;100164.53;7723176;32;37086;-72
2022/07/20 10:29:46;;;;;;;10.48;1.80;;;;;;;36.03;14.31;100154.66;7733600;32;40196;-72
2022/07/20 10:34:02;;;;;;;2.70;1.35;;;;;;;35.29;14.45;100153.69;7738011;32;40701;-71
2022/07/20 10:38:20;;;;;;;5.72;1.20;;;;;;;36.10;13.66;100151.69;7728791;32;37626;-72
2022/07/20 10:42:48;;;;;;;13.65;1.30;;;;;;;35.18;14.86;100145.31;7724187;32;37248;-72
2022/07/20 10:47:24;;;;;;;3.37;1.55;;;;;;;35.89;14.68;100139.56;7723475;32;40001;-73
2022/07/20 10:51:40;;;;;;;5.07;1.60;;;;;;;36.03;13.29;100149.81;7727282;32;40978;-71
2022/07/20 10:55:58;;;;;;;2.72;1.60;;;;;;;36.10;14.26;100148.84;7715177;32;38599;-71
2022/07/20 11:00:15;;;;;;;6.53;1.80;;;;;;;36.61;13.41;100140.00;7722756;32;36781;-72
2022/07/20 11:04:41;;;;;;;2.58;1.50;;;;;;;36.53;13.35;100130.84;7723985;32;39055;-73
2022/07/20 11:08:59;;;;;;;3.78;1.60;;;;;;;36.69;13.37;100127.25;7735374;32;39978;-72
2022/07/20 11:13:15;;;;;;;4.45;1.27;;;;;;;36.46;13.53;100131.00;7726794;32;38825;-72
2022/07/20 11:17:33;;;;;;;3.47;1.50;;;;;;;36.09;13.30;100118.87;7721105;32;37081;-72
2022/07/20 11:21:50;;;;;;;3.95;1.40;;;;;;;36.06;12.97;100108.41;7723990;32;39565;-73
2022/07/20 11:26:07;;;;;;;2.72;1.33;;;;;;;36.44;12.89;100116.47;7722202;32;40175;-73
2022/07/20 11:30:34;;;;;;;3.83;1.33;;;;;;;36.45;13.89;100112.41;7723037;32;38548;-73
2022/07/20 11:34:53;;;;;;;4.65;1.50;;;;;;;36.80;13.08;100112.78;7723101;32;37883;-72
2022/07/20 11:39:12;;;;;;;4.55;1.75;;;;;;;36.29;13.11;100099.00;7718811;32;40037;-73
2022/07/20 11:43:31;;;;;;;7.07;1.50;;;;;;;36.59;12.55;100097.06;7721683;32;40721;-73
2022/07/20 11:47:47;;;;;;;5.10;1.70;;;;;;;36.28;12.88;100103.84;7721631;32;38166;-72
2022/07/20 11:52:36;;;;;;;2.25;1.50;;;;;;;36.73;13.25;100093.06;7722236;32;37015;-72
2022/07/20 11:56:53;;;;;;;1.58;1.27;;;;;;;36.85;12.85;100078.16;7722491;32;39338;-72
2022/07/20 12:01:11;;;;;;;3.22;1.70;;;;;;;37.58;12.33;100074.94;7715036;32;39571;-74
2022/07/20 12:05:39;;;;;;;9.40;1.73;;;;;;;37.64;12.14;100063.81;7713324;32;37654;-71
2022/07/20 12:10:07;;;;;;;4.95;1.50;;;;;;;37.59;11.68;100070.84;7709417;32;37408;-72
2022/07/20 12:14:42;;;;;;;4.82;1.40;;;;;;;37.70;11.70;100064.84;7709360;32;39784;-72
2022/07/20 12:19:11;;;;;;;4.07;1.40;;;;;;;37.32;12.06;100072.00;7709346;32;39721;-72
2022/07/20 12:23:28;;;;;;;6.07;1.87;;;;;;;37.32;12.06;100062.69;7710153;32;38952;-72
2022/07/20 12:27:44;;;;;;;3.75;1.45;;;;;;;37.53;11.35;100053.56;7712866;32;36977;-74
2022/07/20 12:32:05;;;;;;;6.18;1.60;;;;;;;37.75;10.75;100059.41;7712795;32;40221;-73
2022/07/20 12:36:30;;;;;;;2.75;1.55;;;;;;;37.89;11.15;100051.69;7712845;32;40975;-73
2022/07/20 12:40:50;;;;;;;4.62;1.65;;;;;;;38.04;10.99;100052.81;7696509;32;37857;-73
2022/07/20 12:45:08;;;;;;;3.62;1.45;;;;;;;38.28;11.28;100041.13;7686144;32;37831;-72
2022/07/20 12:49:28;;;;;;;6.30;1.92;;;;;;;38.00;11.61;100039.97;7685968;32;39476;-72
2022/07/20 12:53:48;;;;;;;4.80;1.80;;;;;;;38.53;10.72;100034.56;7685941;32;41232;-72
2022/07/20 12:58:04;;;;;;;3.85;1.30;;;;;;;38.66;11.05;100035.38;7685778;32;38719;-73
2022/07/20 13:02:20;;;;;;;6.87;1.75;;;;;;;38.78;10.66;100030.09;7685924;32;37115;-72
2022/07/20 13:06:37;;;;;;;9.38;1.62;;;;;;;38.33;10.83;100017.78;7685808;32;40177;-73
2022/07/20 13:10:53;;;;;;;6.25;1.52;;;;;;;39.30;10.35;100013.59;7685717;32;40723;-74
2022/07/20 13:15:09;;;;;;;4.07;1.58;;;;;;;38.86;10.59;100015.12;7685708;32;37729;-73
2022/07/20 13:19:45;;;;;;;5.30;1.70;;;;;;;39.55;10.47;100007.75;7685500;32;38398;-73
2022/07/20 13:24:01;;;;;;;8.48;1.77;;;;;;;39.17;10.29;100005.91;7685608;32;39394;-73
2022/07/20 13:28:18;;;;;;;4.12;1.55;;;;;;;39.23;10.36;100006.87;7685505;32;40038;-73
2022/07/20 13:32:39;;;;;;;;;;;;;;;39.43;10.23;100000.84;7685481;32;37754;-72
2022/07/20 13:36:54;;;;;;;4.78;1.55;;;;;;;39.50;10.34;100008.34;7684870;32;36894;-73
2022/07/20 13:41:11;;;;;;;3.60;1.50;;;;;;;38.17;10.82;100000.81;7712253;32;39315;-74
2022/07/20 13:45:29;;;;;;;8.70;1.95;;;;;;;38.84;10.36;99996.91;7712053;32;40990;-75
2022/07/20 13:49:45;;;;;;;4.50;1.35;;;;;;;38.34;11.79;99990.88;7712086;32;38649;-76
2022/07/20 13:54:01;;;;;;;5.62;1.45;;;;;;;37.74;11.72;99983.09;7711918;32;38449;-73
2022/07/20 13:58:21;;;;;;;3.30;1.33;;;;;;;37.93;11.31;99978.41;7711823;32;39463;-74
2022/07/20 14:02:39;;;;;;;5.60;1.60;;;;;;;38.43;11.33;99971.06;7711818;32;40879;-73
2022/07/20 14:06:55;;;;;;;3.72;1.70;;;;;;;38.38;10.70;99977.34;7711618;32;38744;-73
2022/07/20 14:11:11;;;;;;;3.78;1.70;;;;;;;38.54;11.19;99964.19;7711659;32;37176;-73
2022/07/20 14:15:27;;;;;;;4.75;1.58;;;;;;;38.80;11.04;99964.91;7712448;32;40114;-73
2022/07/20 14:19:43;;;;;;;3.50;1.50;;;;;;;38.85;10.79;99967.94;7723661;32;40979;-73
2022/07/20 14:23:59;;;;;;;2.05;1.40;;;;;;;38.95;10.94;99962.34;7723205;32;37536;-73
2022/07/20 14:28:16;;;;;;;5.50;1.50;;;;;;;39.50;10.54;99961.91;7724519;32;37864;-73
2022/07/20 14:32:33;;;;;;;5.05;1.70;;;;;;;39.13;10.52;99956.00;7716663;32;40140;-73
2022/07/20 14:36:50;;;;;;;7.43;2.12;;;;;;;39.15;10.56;99945.69;7724147;32;40140;-72
2022/07/20 14:41:06;;;;;;;6.40;1.50;;;;;;;39.32;10.26;99951.19;7728793;32;37874;-72
2022/07/20 14:45:25;;;;;;;8.60;1.65;;;;;;;39.37;10.48;99945.66;7738192;32;37062;-74
2022/07/20 14:49:41;;;;;;;2.90;1.52;;;;;;;39.59;10.08;99927.75;7738085;32;39411;-73
2022/07/20 14:53:58;;;;;;;4.70;1.40;;;;;;;39.14;10.39;99921.31;7737953;32;40063;-72
2022/07/20 14:58:15;;;;;;;1.80;1.30;;;;;;;38.38;10.56;99925.28;7726486;32;38204;-72
2022/07/20 15:02:31;;;;;;;6.70;1.60;;;;;;;38.86;10.04;99923.16;7710941;32;37832;-73
2022/07/20 15:06:47;;;;;;;7.05;2.00;;;;;;;39.08;10.77;99914.63;7711013;32;39286;-72
2022/07/20 15:11:03;;;;;;;3.87;1.60;;;;;;;39.28;10.90;99913.47;7728422;32;39918;-73
2022/07/20 15:15:19;;;;;;;4.70;1.40;;;;;;;38.60;10.32;99911.91;7737458;32;37854;-72
2022/07/20 15:19:35;;;;;;;3.42;1.62;;;;;;;38.19;10.74;99913.75;7720196;32;37032;-73
2022/07/20 15:23:51;;;;;;;2.55;1.40;;;;;;;38.63;11.30;99913.81;7717877;32;39265;-73
2022/07/20 15:28:07;;;;;;;2.25;1.40;;;;;;;37.85;11.01;99909.56;7711431;32;40868;-73
2022/07/20 15:32:24;;;;;;;4.72;1.58;;;;;;;38.17;11.34;99904.06;7710380;32;37861;-74
2022/07/20 15:36:41;;;;;;;4.15;1.37;;;;;;;38.42;10.93;99901.13;7710174;32;37856;-73
2022/07/20 15:40:57;;;;;;;3.42;1.37;;;;;;;38.39;11.34;99913.44;7711748;32;40141;-73
2022/07/20 15:45:14;;;;;;;5.85;1.40;;;;;;;38.30;11.50;99899.91;7736292;32;39986;-74
2022/07/20 15:49:31;;;;;;;5.62;1.40;;;;;;;38.28;11.39;99898.78;7727313;32;38028;-73
2022/07/20 15:53:47;;;;;;;3.47;1.50;;;;;;;38.28;11.62;99891.03;7694590;32;36828;-73
2022/07/20 15:58:03;;;;;;;11.63;1.70;;;;;;;38.34;11.52;99891.25;7683771;32;39110;-73
2022/07/20 16:02:19;;;;;;;6.05;1.70;;;;;;;38.41;11.34;99882.47;7681015;32;39752;-74
2022/07/20 16:06:43;;;;;;;3.90;1.48;;;;;;;38.65;11.36;99882.03;7694061;32;37390;-75
2022/07/20 16:10:59;;;;;;;9.07;1.40;;;;;;;38.91;11.94;99871.28;7685527;32;36451;-75
2022/07/20 16:15:16;;;;;;;5.15;1.67;;;;;;;38.03;11.78;99877.66;7684752;32;40182;-75
2022/07/20 16:19:33;;;;;;;4.80;1.42;;;;;;;38.38;11.90;99874.84;7686285;32;39917;-75
2022/07/20 16:23:49;;;;;;;4.47;1.50;;;;;;;37.93;12.23;99871.09;7685505;32;37630;-75
2022/07/20 16:28:05;;;;;;;2.83;1.50;;;;;;;38.01;11.69;99877.31;7686265;32;37189;-77
2022/07/20 16:32:22;;;;;;;6.35;1.40;;;;;;;38.03;11.80;99869.09;7685628;32;39448;-76
2022/07/20 16:36:38;;;;;;;6.03;1.42;;;;;;;38.13;11.72;99867.97;7686014;32;40746;-76
2022/07/20 16:40:54;;;;;;;7.43;2.00;;;;;;;38.33;11.95;99869.75;7685015;32;38558;-75
2022/07/20 16:45:11;;;;;;;1.25;1.12;;;;;;;37.81;11.90;99869.06;7685404;32;37034;-75
2022/07/20 16:49:27;;;;;;;8.27;1.58;;;;;;;37.86;12.00;99864.84;7686017;32;39036;-76
2022/07/20 16:53:43;;;;;;;5.97;1.65;;;;;;;38.03;12.33;99865.47;7684998;32;40728;-74
2022/07/20 16:57:59;;;;;;;2.95;1.52;;;;;;;37.64;12.31;99864.75;7693949;32;37799;-74
2022/07/20 17:02:15;;;;;;;5.62;1.58;;;;;;;37.63;12.34;99869.63;7704347;32;37769;-75
2022/07/20 17:06:31;;;;;;;6.00;1.90;;;;;;;37.73;12.50;99879.87;7699637;32;40246;-73
2022/07/20 17:10:48;;;;;;;6.03;1.70;;;;;;;37.84;12.26;99861.66;7684567;32;39671;-75
2022/07/20 17:15:06;;;;;;;3.83;1.67;;;;;;;37.63;12.39;99869.63;7687143;32;37844;-74
2022/07/20 17:19:25;;;;;;;6.97;1.70;;;;;;;37.49;12.41;99865.19;7712314;32;35945;-75
2022/07/20 17:23:42;;;;;;;5.32;1.50;;;;;;;37.54;12.63;99863.84;7711433;32;39895;-75
2022/07/20 17:27:58;;;;;;;10.25;1.60;;;;;;;37.50;12.71;99854.63;7709210;32;39896;-74
2022/07/20 17:32:14;;;;;;;3.15;1.27;;;;;;;37.40;12.96;99863.03;7711348;32;37814;-74
2022/07/20 17:36:30;;;;;;;8.75;1.80;;;;;;;37.26;13.24;99860.66;7699719;32;37085;-74
2022/07/20 17:40:47;;;;;;;2.58;1.40;;;;;;;37.46;13.04;99860.41;7710050;32;39951;-76
2022/07/20 17:45:04;;;;;;;4.37;1.50;;;;;;;37.30;13.53;99847.13;7695903;32;39737;-74
2022/07/20 17:49:20;;;;;;;6.97;1.60;;;;;;;37.34;13.89;99847.81;7684161;32;37914;-73
2022/07/20 17:53:36;;;;;;;6.75;1.92;;;;;;;37.18;14.33;99845.88;7685169;32;38096;-74
2022/07/20 17:57:52;;;;;;;5.60;1.70;;;;;;;37.06;14.66;99849.47;7704183;32;39611;-74
2022/07/20 18:02:09;;;;;;;3.22;1.60;;;;;;;36.72;15.17;99841.56;7711691;32;40745;-75
2022/07/20 18:06:25;;;;;;;10.55;1.67;;;;;;;36.41;15.17;99845.66;7710378;32;37669;-74
2022/07/20 18:10:41;;;;;;;13.40;2.40;;;;;;;36.26;15.26;99856.63;7711607;32;37661;-76
2022/07/20 18:14:57;;;;;;;9.27;2.03;;;;;;;35.96;15.48;99857.00;7700225;32;40257;-74
2022/07/20 18:19:13;;;;;;;8.73;1.77;;;;;;;35.70;15.90;99859.62;7707294;32;39861;-76
2022/07/20 18:23:30;;;;;;;9.18;2.25;;;;;;;35.48;16.35;99854.50;7684558;32;38107;-75
2022/07/20 18:27:46;;;;;;;5.95;1.95;;;;;;;34.93;20.38;99864.63;7702775;32;37111;-74
2022/07/20 18:32:02;;;;;;;26.12;3.62;;;;;;;34.77;17.96;99860.50;7711287;32;40218;-74
2022/07/20 18:36:19;;;;;;;9.70;2.42;;;;;;;34.44;19.64;99870.81;7700337;32;40773;-73
2022/07/20 18:40:35;;;;;;;5.90;1.77;;;;;;;34.13;18.84;99867.34;7684747;32;37696;-74
2022/07/20 18:44:51;;;;;;;9.00;1.87;;;;;;;33.81;19.09;99872.34;7685605;32;36741;-74
2022/07/20 18:49:07;;;;;;;12.45;2.10;;;;;;;33.48;19.58;99877.66;7708548;32;39034;-77
2022/07/20 18:53:24;;;;;;;10.43;2.33;;;;;;;33.35;19.43;99884.34;7711115;32;40569;-73
2022/07/20 18:57:40;;;;;;;10.50;2.22;;;;;;;33.10;20.31;99886.25;7692122;32;37840;-74
2022/07/20 19:01:56;;;;;;;5.47;2.12;;;;;;;32.82;20.58;99887.41;7697715;32;37086;-74
2022/07/20 19:06:12;;;;;;;2.95;2.08;;;;;;;32.70;20.69;99891.59;7698595;32;39295;-76
2022/07/20 19:10:28;;;;;;;7.97;2.25;;;;;;;32.47;21.17;99888.59;7693668;32;40771;-77
2022/07/20 19:14:46;;;;;;;7.55;2.28;;;;;;;32.21;21.79;99890.88;7694827;32;38757;-76
2022/07/20 19:19:02;;;;;;;5.72;1.70;;;;;;;32.19;21.18;99896.91;7710671;32;37284;-75
2022/07/20 19:23:19;;;;;;;5.20;1.80;;;;;;;31.83;22.04;99897.19;7699705;32;40007;-74
2022/07/20 19:27:35;;;;;;;7.25;1.70;;;;;;;31.61;22.65;99907.03;7710527;32;39788;-73
2022/07/20 19:31:51;;;;;;;6.75;1.70;;;;;;;31.42;22.42;99899.88;7706960;32;37654;-74
2022/07/20 19:36:08;;;;;;;2.55;1.60;;;;;;;31.25;22.53;99910.03;7706291;32;36749;-72
2022/07/20 19:40:24;;;;;;;4.00;1.92;;;;;;;31.07;23.02;99910.91;7709682;32;40145;-75
2022/07/20 19:44:40;;;;;;;5.62;1.73;;;;;;;30.84;23.55;99911.38;7701030;32;40772;-73
2022/07/20 19:48:56;;;;;;;4.97;1.73;;;;;;;30.70;23.29;99912.25;7695853;32;38696;-76
2022/07/20 19:53:15;;;;;;;2.28;1.60;;;;;;;30.55;23.95;99916.28;7709075;32;37779;-74
2022/07/20 19:57:31;;;;;;;2.97;1.73;;;;;;;30.39;23.84;99915.91;7701944;32;39493;-75
2022/07/20 20:01:48;;;;;;;4.28;1.62;;;;;;;30.28;23.76;99925.13;7689685;32;39703;-75